createdAt,value
2023-04-15T00:04:57.661Z,100.00
2023-04-15T00:10:00.452Z,100.00
2023-04-15T00:15:04.278Z,100.00
2023-04-15T00:20:08.178Z,100.00
2023-04-15T00:25:11.738Z,100.00
2023-04-15T00:30:14.737Z,100.00
2023-04-15T00:35:17.637Z,100.00
2023-04-15T00:40:24.719Z,100.00
2023-04-15T00:45:28.328Z,100.00
2023-04-15T00:50:31.162Z,100.00
2023-04-15T00:55:34.705Z,100.00
2023-04-15T01:00:37.689Z,100.00
2023-04-15T01:05:40.487Z,100.00
2023-04-15T01:10:44.112Z,100.00
2023-04-15T01:15:47.436Z,100.00
2023-04-15T01:20:50.171Z,100.00
2023-04-15T01:25:53.928Z,100.00
2023-04-15T01:31:14.620Z,100.00
2023-04-15T01:36:17.461Z,100.00
2023-04-15T01:41:28.257Z,100.00
2023-04-15T01:46:31.631Z,100.00
2023-04-15T01:51:34.493Z,100.00
2023-04-15T01:56:37.582Z,100.00
2023-04-15T02:01:41.200Z,100.00
2023-04-15T02:06:44.247Z,100.00
2023-04-15T02:11:47.108Z,100.00
2023-04-15T02:16:49.835Z,100.00
2023-04-15T02:21:52.720Z,100.00
2023-04-15T02:26:56.140Z,100.00
2023-04-15T02:31:59.182Z,100.00
2023-04-15T02:37:03.997Z,100.00
2023-04-15T02:42:07.422Z,100.00
2023-04-15T02:47:11.757Z,100.00
2023-04-15T02:52:14.473Z,100.00
2023-04-15T02:57:17.242Z,100.00
2023-04-15T03:02:20.076Z,100.00
2023-04-15T03:07:23.039Z,100.00
2023-04-15T03:12:26.157Z,100.00
2023-04-15T03:17:28.824Z,100.00
2023-04-15T03:22:32.671Z,100.00
2023-04-15T03:27:35.477Z,100.00
2023-04-15T03:32:38.549Z,100.00
2023-04-15T03:37:41.487Z,100.00
2023-04-15T03:42:44.136Z,100.00
2023-04-15T03:47:47.535Z,100.00
2023-04-15T03:52:51.324Z,100.00
2023-04-15T03:57:54.329Z,100.00
2023-04-15T04:02:57.353Z,100.00
2023-04-15T04:08:00.952Z,100.00
2023-04-15T04:13:03.657Z,100.00
2023-04-15T04:18:06.676Z,100.00
2023-04-15T04:23:09.564Z,100.00
2023-04-15T04:28:12.591Z,100.00
2023-04-15T04:33:15.580Z,100.00
2023-04-15T04:38:18.271Z,100.00
2023-04-15T04:43:21.277Z,100.00
2023-04-15T04:48:24.183Z,100.00
2023-04-15T04:53:28.147Z,100.00
2023-04-15T04:58:31.029Z,100.00
2023-04-15T05:03:33.813Z,100.00
2023-04-15T05:08:38.612Z,100.00
2023-04-15T05:13:44.012Z,100.00
2023-04-15T05:18:46.838Z,100.00
2023-04-15T05:23:49.773Z,100.00
2023-04-15T05:28:52.430Z,100.00
2023-04-15T05:33:55.423Z,100.00
2023-04-15T05:38:58.240Z,100.00
2023-04-15T05:44:02.076Z,100.00
2023-04-15T05:49:04.867Z,100.00
2023-04-15T05:54:08.080Z,100.00
2023-04-15T05:59:11.191Z,100.00
2023-04-15T06:04:14.021Z,100.00
2023-04-15T06:09:17.177Z,100.00
2023-04-15T06:14:19.866Z,100.00
2023-04-15T06:19:22.690Z,100.00
2023-04-15T06:24:28.081Z,100.00
2023-04-15T06:29:30.786Z,100.00
2023-04-15T06:34:35.111Z,99.54
2023-04-15T06:39:38.434Z,98.27
2023-04-15T06:44:41.339Z,97.89
2023-04-15T06:49:44.977Z,97.60
2023-04-15T06:54:47.724Z,97.73
2023-04-15T06:59:51.659Z,97.45
2023-04-15T07:04:54.559Z,97.19
2023-04-15T07:09:57.340Z,97.03
2023-04-15T07:15:00.062Z,96.22
2023-04-15T07:20:05.000Z,95.68
2023-04-15T07:25:09.153Z,95.49
2023-04-15T07:30:13.964Z,95.63
2023-04-15T07:35:16.693Z,95.70
2023-04-15T07:40:19.904Z,95.89
2023-04-15T07:45:22.894Z,95.99
2023-04-15T07:50:26.165Z,96.34
2023-04-15T07:55:30.756Z,96.49
2023-04-15T08:00:33.588Z,96.98
2023-04-15T08:05:36.342Z,97.15
2023-04-15T08:10:39.050Z,97.23
2023-04-15T08:15:42.213Z,96.78
2023-04-15T08:20:44.957Z,96.82
2023-04-15T08:25:47.649Z,96.85
2023-04-15T08:30:53.016Z,96.82
2023-04-15T08:35:55.891Z,95.90
2023-04-15T08:41:03.772Z,95.98
2023-04-15T08:46:07.671Z,95.20
2023-04-15T08:51:11.111Z,94.46
2023-04-15T08:56:15.826Z,94.10
2023-04-15T09:01:18.921Z,94.41
2023-04-15T09:06:23.176Z,94.97
2023-04-15T09:11:26.108Z,94.62
2023-04-15T09:16:28.895Z,94.87
2023-04-15T09:21:32.205Z,95.23
2023-04-15T09:26:37.176Z,95.44
2023-04-15T09:31:40.810Z,94.64
2023-04-15T09:36:46.810Z,94.27
2023-04-15T09:42:11.056Z,94.52
2023-04-15T09:47:32.907Z,94.61
2023-04-15T09:52:43.076Z,95.14
2023-04-15T09:57:47.578Z,95.88
2023-04-15T10:02:52.139Z,96.16
2023-04-15T10:07:55.305Z,95.61
2023-04-15T10:12:58.071Z,95.98
2023-04-15T10:18:02.002Z,96.76
2023-04-15T10:23:06.398Z,97.53
2023-04-15T10:28:11.195Z,97.79
2023-04-15T10:33:17.279Z,97.80
2023-04-15T10:38:40.439Z,98.04
2023-04-15T10:43:47.946Z,97.61
2023-04-15T10:48:52.720Z,97.64
2023-04-15T10:54:02.265Z,97.47
2023-04-15T10:59:05.913Z,97.82
2023-04-15T11:04:08.785Z,98.03
2023-04-15T11:09:32.264Z,98.80
2023-04-15T11:14:39.816Z,99.48
2023-04-15T11:19:43.689Z,100.00
2023-04-15T11:24:50.638Z,100.00
2023-04-15T11:29:53.405Z,100.00
2023-04-15T11:34:56.163Z,100.00
2023-04-15T11:39:59.119Z,100.00
2023-04-15T11:45:09.612Z,100.00
2023-04-15T11:50:22.639Z,100.00
2023-04-15T11:55:26.275Z,100.00
2023-04-15T12:00:29.335Z,100.00
2023-04-15T12:05:32.367Z,100.00
2023-04-15T12:10:35.218Z,100.00
2023-04-15T12:15:39.316Z,100.00
2023-04-15T12:20:45.704Z,100.00
2023-04-15T12:25:52.784Z,100.00
2023-04-15T12:30:55.837Z,100.00
2023-04-15T12:35:58.425Z,100.00
2023-04-15T12:41:01.283Z,100.00
2023-04-15T12:46:04.996Z,100.00
2023-04-15T12:51:08.112Z,100.00
2023-04-15T12:56:10.823Z,100.00
2023-04-15T13:01:13.640Z,100.00
2023-04-15T13:06:17.025Z,100.00
2023-04-15T13:11:20.674Z,100.00
2023-04-15T13:16:26.634Z,100.00
2023-04-15T13:21:29.875Z,100.00
2023-04-15T13:26:32.958Z,100.00
2023-04-15T13:31:35.689Z,100.00
2023-04-15T13:36:38.977Z,100.00
2023-04-15T13:41:41.775Z,100.00
2023-04-15T13:46:44.490Z,100.00
2023-04-15T13:51:47.206Z,100.00
2023-04-15T13:56:50.059Z,100.00
2023-04-15T14:01:53.206Z,100.00
2023-04-15T14:06:56.478Z,100.00
2023-04-15T14:12:00.224Z,100.00
2023-04-15T14:17:04.750Z,100.00
2023-04-15T14:22:07.557Z,100.00
2023-04-15T14:27:12.169Z,100.00
2023-04-15T14:32:16.158Z,100.00
2023-04-15T14:37:20.157Z,100.00
2023-04-15T14:42:22.864Z,100.00
2023-04-15T14:47:25.932Z,100.00
2023-04-15T14:52:28.804Z,100.00
2023-04-15T14:57:31.487Z,100.00
2023-04-15T15:02:39.682Z,100.00
2023-04-15T15:07:42.810Z,100.00
2023-04-15T15:12:45.566Z,100.00
2023-04-15T15:17:48.443Z,100.00
2023-04-15T15:22:51.525Z,100.00
2023-04-15T15:27:54.154Z,100.00
2023-04-15T15:32:57.007Z,100.00
2023-04-15T15:38:01.527Z,100.00
2023-04-15T15:43:04.869Z,100.00
2023-04-15T15:48:07.779Z,100.00
2023-04-15T15:53:12.516Z,100.00
2023-04-15T15:58:15.637Z,100.00
2023-04-15T16:03:18.510Z,100.00
2023-04-15T16:08:21.536Z,100.00
2023-04-15T16:13:24.239Z,100.00
2023-04-15T16:18:27.118Z,100.00
2023-04-15T16:23:31.242Z,100.00
2023-04-15T16:28:34.145Z,100.00
2023-04-15T16:33:37.107Z,100.00
2023-04-15T16:38:40.061Z,100.00
2023-04-15T16:43:42.890Z,100.00
2023-04-15T16:48:45.686Z,100.00
2023-04-15T16:53:49.303Z,100.00
2023-04-15T16:58:52.629Z,100.00
2023-04-15T17:03:56.365Z,100.00
2023-04-15T17:08:59.650Z,100.00
2023-04-15T17:14:03.160Z,100.00
2023-04-15T17:19:06.553Z,100.00
2023-04-15T17:24:09.438Z,100.00
2023-04-15T17:29:12.495Z,100.00
2023-04-15T17:34:16.215Z,100.00
2023-04-15T17:39:19.337Z,100.00
2023-04-15T17:44:23.517Z,100.00
2023-04-15T17:49:28.435Z,100.00
2023-04-15T17:54:31.220Z,100.00
2023-04-15T17:59:34.198Z,100.00
2023-04-15T18:04:37.026Z,100.00
2023-04-15T18:09:39.979Z,100.00
2023-04-15T18:14:42.822Z,100.00
2023-04-15T18:19:46.540Z,100.00
2023-04-15T18:24:52.109Z,100.00
2023-04-15T18:29:54.920Z,100.00
2023-04-15T18:34:57.720Z,100.00
2023-04-15T18:40:00.619Z,100.00
2023-04-15T18:45:03.840Z,100.00
2023-04-15T18:50:08.192Z,100.00
2023-04-15T18:55:10.984Z,100.00
2023-04-15T19:00:15.923Z,100.00
2023-04-15T19:05:18.782Z,100.00
2023-04-15T19:10:21.936Z,100.00
2023-04-15T19:15:24.615Z,100.00
2023-04-15T19:20:27.441Z,100.00
2023-04-15T19:25:31.324Z,100.00
2023-04-15T19:30:34.182Z,100.00
2023-04-15T19:35:38.420Z,100.00
2023-04-15T19:40:41.134Z,100.00
2023-04-15T19:45:46.854Z,100.00
2023-04-15T19:50:50.147Z,100.00
2023-04-15T19:55:52.877Z,100.00
2023-04-15T20:00:55.643Z,100.00
2023-04-15T20:05:58.691Z,100.00
2023-04-15T20:11:01.821Z,100.00
2023-04-15T20:16:06.056Z,100.00
2023-04-15T20:21:08.894Z,100.00
2023-04-15T20:26:11.606Z,100.00
2023-04-15T20:31:14.438Z,100.00
2023-04-15T20:36:17.343Z,100.00
2023-04-15T20:41:21.669Z,100.00
2023-04-15T20:46:26.562Z,100.00
2023-04-15T20:51:37.343Z,100.00
2023-04-15T20:56:40.332Z,100.00
2023-04-15T21:01:43.578Z,100.00
2023-04-15T21:06:47.669Z,100.00
2023-04-15T21:16:57.646Z,100.00
2023-04-15T21:22:00.671Z,100.00
2023-04-15T21:27:03.400Z,100.00
2023-04-15T21:32:06.686Z,100.00
2023-04-15T21:37:09.446Z,100.00
2023-04-15T21:42:12.222Z,100.00
2023-04-15T21:47:15.020Z,100.00
2023-04-15T21:52:17.877Z,100.00
2023-04-15T21:57:20.689Z,100.00
2023-04-15T22:02:23.563Z,100.00
2023-04-15T22:07:26.590Z,100.00
2023-04-15T22:12:29.291Z,100.00
2023-04-15T22:17:32.013Z,100.00
2023-04-15T22:22:44.411Z,100.00
2023-04-15T22:27:47.628Z,100.00
2023-04-15T22:32:50.460Z,100.00
2023-04-15T22:37:53.334Z,100.00
2023-04-15T22:42:56.325Z,100.00
2023-04-15T22:47:59.006Z,100.00
2023-04-15T22:53:01.914Z,100.00
2023-04-15T22:58:04.737Z,100.00
2023-04-15T23:03:08.007Z,100.00
2023-04-15T23:08:10.953Z,100.00
2023-04-15T23:13:13.659Z,100.00
2023-04-15T23:18:16.458Z,100.00
2023-04-15T23:23:19.378Z,100.00
2023-04-15T23:28:22.140Z,100.00
2023-04-15T23:33:24.861Z,100.00
2023-04-15T23:38:27.531Z,100.00
2023-04-15T23:43:30.464Z,100.00
2023-04-15T23:48:33.370Z,100.00
2023-04-15T23:53:36.386Z,100.00
2023-04-15T23:58:39.112Z,100.00
